Decoded Metar for KAOH (LIMA in OH, USA) (IATA:AOH) | Meteo·Mobile Aviation Weather
aviador You're here:

KAOH Decoded Metar

LIMA in OH, USA
Report Time2018-10-19 19:53:00
UTC Time2018-10-19 20:21:38
Flight Rules vfr VFR
Wind220° at 11 kt
W.Decomp.*RWY 28: 6.5 kt HW 8.9 kt LCW
RWY 14: 0.8 kt HW 11.0 kt RCW
W.Rank220° ranks 7
Current wind is above 220° avg. (9.2)
Visibility9999 m
Phenomena:N/A
Clouds:Overcast 100 Hf
Expected CloudBase > 4,800 ft AGL from Temp-Dew spread
Ceiling10,000 ft
Temp13°C (ISA -0)
Dew Point01°C (44% RH)
AAT7.2°C
QNH1015 hPa
Density Alt988 ft
Elevation971 ft
Report Wrong Elevation
Raw Report
KAOH 191953Z AUTO 22011KT 10SM OVC100 13/01 A2998 RMK AO2 SLP155
T01330011 TSNO=

Extra information for KAOH:More info

Metar Taf Metar & Taf Last 4 Metars F.Rules Stats Wind Profile Meteogram Temp Stats Airport Information Weather charts Add Link Nearby VenuesMetar ALERT Operation Metar Decoded Social comments

AIRNAV info for KAOH